sensor_id;sensor_type;location;lat;lon;timestamp;pressure;altitude;pressure_sealevel;temperature;humidity
46379;BME280;32084;42.254;22.744;2023-02-13T00:01:52;96901.66;;;-2.52;77.99
46379;BME280;32084;42.254;22.744;2023-02-13T00:04:18;96903.03;;;-2.37;77.62
46379;BME280;32084;42.254;22.744;2023-02-13T00:06:44;96904.22;;;-2.16;76.52
46379;BME280;32084;42.254;22.744;2023-02-13T00:09:12;96899.66;;;-2.09;77.20
46379;BME280;32084;42.254;22.744;2023-02-13T00:11:38;96906.94;;;-2.21;75.93
46379;BME280;32084;42.254;22.744;2023-02-13T00:14:04;96914.44;;;-2.40;77.48
46379;BME280;32084;42.254;22.744;2023-02-13T00:16:30;96913.41;;;-2.34;77.10
46379;BME280;32084;42.254;22.744;2023-02-13T00:18:56;96915.00;;;-2.28;77.21
46379;BME280;32084;42.254;22.744;2023-02-13T00:21:22;96919.69;;;-2.41;77.04
46379;BME280;32084;42.254;22.744;2023-02-13T00:23:48;96912.81;;;-2.45;77.23
46379;BME280;32084;42.254;22.744;2023-02-13T00:26:15;96907.41;;;-2.39;77.33
46379;BME280;32084;42.254;22.744;2023-02-13T00:28:41;96915.72;;;-2.56;76.96
46379;BME280;32084;42.254;22.744;2023-02-13T00:31:11;96909.09;;;-2.71;78.35
46379;BME280;32084;42.254;22.744;2023-02-13T00:33:38;96916.59;;;-2.56;77.51
46379;BME280;32084;42.254;22.744;2023-02-13T00:36:04;96909.44;;;-2.50;77.57
46379;BME280;32084;42.254;22.744;2023-02-13T00:38:31;96906.97;;;-2.55;77.25
46379;BME280;32084;42.254;22.744;2023-02-13T00:40:57;96915.97;;;-2.67;77.61
46379;BME280;32084;42.254;22.744;2023-02-13T00:43:23;96910.00;;;-2.72;77.91
46379;BME280;32084;42.254;22.744;2023-02-13T00:45:49;96909.44;;;-2.50;77.64
46379;BME280;32084;42.254;22.744;2023-02-13T00:48:15;96913.03;;;-2.55;77.96
46379;BME280;32084;42.254;22.744;2023-02-13T00:50:41;96910.09;;;-2.75;76.95
46379;BME280;32084;42.254;22.744;2023-02-13T00:53:07;96909.19;;;-2.76;77.58
46379;BME280;32084;42.254;22.744;2023-02-13T00:55:33;96907.28;;;-2.67;77.69
46379;BME280;32084;42.254;22.744;2023-02-13T00:58:00;96910.38;;;-2.51;77.84
46379;BME280;32084;42.254;22.744;2023-02-13T01:00:26;96904.84;;;-2.75;77.90
46379;BME280;32084;42.254;22.744;2023-02-13T01:02:52;96907.53;;;-2.78;77.81
46379;BME280;32084;42.254;22.744;2023-02-13T01:05:18;96909.13;;;-2.72;77.56
46379;BME280;32084;42.254;22.744;2023-02-13T01:07:44;96913.47;;;-2.71;77.44
46379;BME280;32084;42.254;22.744;2023-02-13T01:10:10;96911.19;;;-2.85;77.55
46379;BME280;32084;42.254;22.744;2023-02-13T01:12:36;96917.38;;;-2.89;77.79
46379;BME280;32084;42.254;22.744;2023-02-13T01:15:03;96912.53;;;-3.06;76.82
46379;BME280;32084;42.254;22.744;2023-02-13T01:17:30;96912.22;;;-2.92;77.69
46379;BME280;32084;42.254;22.744;2023-02-13T01:19:56;96917.38;;;-2.88;76.90
46379;BME280;32084;42.254;22.744;2023-02-13T01:22:22;96921.78;;;-2.90;76.76
46379;BME280;32084;42.254;22.744;2023-02-13T01:24:48;96924.34;;;-2.88;76.86
46379;BME280;32084;42.254;22.744;2023-02-13T01:27:14;96927.25;;;-3.01;77.03
46379;BME280;32084;42.254;22.744;2023-02-13T01:29:40;96926.28;;;-2.97;77.06
46379;BME280;32084;42.254;22.744;2023-02-13T01:32:06;96917.97;;;-2.77;77.17
46379;BME280;32084;42.254;22.744;2023-02-13T01:34:32;96917.00;;;-2.72;77.03
46379;BME280;32084;42.254;22.744;2023-02-13T01:36:58;96926.84;;;-2.84;76.23
46379;BME280;32084;42.254;22.744;2023-02-13T01:39:24;96922.28;;;-3.13;76.47
46379;BME280;32084;42.254;22.744;2023-02-13T01:41:50;96921.59;;;-3.21;77.12
46379;BME280;32084;42.254;22.744;2023-02-13T01:47:01;96924.78;;;-3.07;77.15
46379;BME280;32084;42.254;22.744;2023-02-13T01:49:27;96925.66;;;-3.08;77.17
46379;BME280;32084;42.254;22.744;2023-02-13T01:51:53;96930.06;;;-3.10;77.84
46379;BME280;32084;42.254;22.744;2023-02-13T01:54:27;96932.34;;;-2.95;77.44
46379;BME280;32084;42.254;22.744;2023-02-13T01:56:58;96931.25;;;-3.23;77.88
46379;BME280;32084;42.254;22.744;2023-02-13T01:59:27;96927.78;;;-3.25;79.27
46379;BME280;32084;42.254;22.744;2023-02-13T02:01:54;96930.03;;;-3.08;78.67
46379;BME280;32084;42.254;22.744;2023-02-13T02:04:22;96934.38;;;-3.07;77.46
46379;BME280;32084;42.254;22.744;2023-02-13T02:06:52;96932.91;;;-3.21;77.55
46379;BME280;32084;42.254;22.744;2023-02-13T02:09:22;96933.00;;;-3.24;77.21
46379;BME280;32084;42.254;22.744;2023-02-13T02:14:16;96931.19;;;-3.20;77.26
46379;BME280;32084;42.254;22.744;2023-02-13T02:16:42;96930.19;;;-3.15;77.80
46379;BME280;32084;42.254;22.744;2023-02-13T02:19:13;96920.59;;;-3.16;77.14
46379;BME280;32084;42.254;22.744;2023-02-13T02:27:14;96941.38;;;-3.48;77.69
46379;BME280;32084;42.254;22.744;2023-02-13T02:37:36;96947.91;;;-3.69;78.82
46379;BME280;32084;42.254;22.744;2023-02-13T02:40:10;96951.16;;;-3.58;78.02
46379;BME280;32084;42.254;22.744;2023-02-13T02:50:35;96967.03;;;-3.67;78.52
46379;BME280;32084;42.254;22.744;2023-02-13T02:58:07;96979.66;;;-3.46;77.67
46379;BME280;32084;42.254;22.744;2023-02-13T03:00:53;96969.34;;;-3.52;77.34
46379;BME280;32084;42.254;22.744;2023-02-13T03:03:38;96977.06;;;-3.47;77.71
46379;BME280;32084;42.254;22.744;2023-02-13T03:06:28;96986.38;;;-3.78;76.77
46379;BME280;32084;42.254;22.744;2023-02-13T03:08:57;96982.69;;;-4.13;78.47
46379;BME280;32084;42.254;22.744;2023-02-13T03:11:43;96979.00;;;-4.02;79.21
46379;BME280;32084;42.254;22.744;2023-02-13T03:14:30;96985.63;;;-3.83;78.22
46379;BME280;32084;42.254;22.744;2023-02-13T03:16:56;96985.38;;;-3.70;77.81
46379;BME280;32084;42.254;22.744;2023-02-13T03:25:11;96976.97;;;-3.41;77.73
46379;BME280;32084;42.254;22.744;2023-02-13T03:38:32;96990.06;;;-3.88;77.40
46379;BME280;32084;42.254;22.744;2023-02-13T03:41:27;96988.41;;;-3.92;77.89
46379;BME280;32084;42.254;22.744;2023-02-13T03:46:23;96998.00;;;-3.93;77.23
46379;BME280;32084;42.254;22.744;2023-02-13T03:48:50;97003.97;;;-3.86;78.32
46379;BME280;32084;42.254;22.744;2023-02-13T03:51:36;97007.28;;;-3.76;78.21
46379;BME280;32084;42.254;22.744;2023-02-13T03:54:04;97005.41;;;-3.68;77.72
46379;BME280;32084;42.254;22.744;2023-02-13T03:56:32;97016.94;;;-3.80;76.60
46379;BME280;32084;42.254;22.744;2023-02-13T03:59:21;97015.25;;;-3.84;77.21
46379;BME280;32084;42.254;22.744;2023-02-13T04:01:52;97007.28;;;-3.76;77.24
46379;BME280;32084;42.254;22.744;2023-02-13T04:04:24;97005.50;;;-3.74;77.16
46379;BME280;32084;42.254;22.744;2023-02-13T04:09:18;97011.38;;;-4.09;76.92
46379;BME280;32084;42.254;22.744;2023-02-13T04:12:28;97006.66;;;-4.40;77.72
46379;BME280;32084;42.254;22.744;2023-02-13T04:14:35;97009.34;;;-4.45;78.13
46379;BME280;32084;42.254;22.744;2023-02-13T04:17:11;97023.59;;;-4.66;79.57
46379;BME280;32084;42.254;22.744;2023-02-13T04:19:38;97017.28;;;-4.51;79.81
46379;BME280;32084;42.254;22.744;2023-02-13T04:22:04;97015.94;;;-4.22;78.41
46379;BME280;32084;42.254;22.744;2023-02-13T04:24:30;97019.28;;;-4.14;78.50
46379;BME280;32084;42.254;22.744;2023-02-13T04:26:57;97020.13;;;-4.14;77.91
46379;BME280;32084;42.254;22.744;2023-02-13T04:29:23;97017.47;;;-4.10;77.47
46379;BME280;32084;42.254;22.744;2023-02-13T04:31:50;97015.69;;;-4.08;77.25
46379;BME280;32084;42.254;22.744;2023-02-13T04:34:16;97009.91;;;-4.26;77.45
46379;BME280;32084;42.254;22.744;2023-02-13T04:36:41;97009.88;;;-4.23;77.43
46379;BME280;32084;42.254;22.744;2023-02-13T04:39:08;97007.25;;;-4.23;77.20
46379;BME280;32084;42.254;22.744;2023-02-13T04:41:34;97017.69;;;-4.23;77.35
46379;BME280;32084;42.254;22.744;2023-02-13T04:44:00;97018.03;;;-4.44;76.94
46379;BME280;32084;42.254;22.744;2023-02-13T04:46:26;97015.03;;;-4.74;78.35
46379;BME280;32084;42.254;22.744;2023-02-13T04:48:52;97015.94;;;-4.78;78.56
46379;BME280;32084;42.254;22.744;2023-02-13T04:51:19;97021.00;;;-4.66;78.85
46379;BME280;32084;42.254;22.744;2023-02-13T04:53:45;97023.44;;;-4.55;77.91
46379;BME280;32084;42.254;22.744;2023-02-13T04:56:11;97024.47;;;-4.67;78.30
46379;BME280;32084;42.254;22.744;2023-02-13T04:58:37;97018.25;;;-4.57;77.70
46379;BME280;32084;42.254;22.744;2023-02-13T05:01:21;97018.38;;;-4.66;77.02
46379;BME280;32084;42.254;22.744;2023-02-13T05:03:47;97024.41;;;-4.62;78.68
46379;BME280;32084;42.254;22.744;2023-02-13T05:06:13;97022.78;;;-4.71;77.36
46379;BME280;32084;42.254;22.744;2023-02-13T05:08:39;97020.09;;;-4.65;78.08
46379;BME280;32084;42.254;22.744;2023-02-13T05:11:05;97023.47;;;-4.57;77.26
46379;BME280;32084;42.254;22.744;2023-02-13T05:13:32;97022.50;;;-4.51;77.34
46379;BME280;32084;42.254;22.744;2023-02-13T05:15:58;97024.50;;;-4.68;77.45
46379;BME280;32084;42.254;22.744;2023-02-13T05:18:24;97027.00;;;-4.61;77.72
46379;BME280;32084;42.254;22.744;2023-02-13T05:20:50;97024.66;;;-4.78;77.27
46379;BME280;32084;42.254;22.744;2023-02-13T05:23:34;97041.28;;;-4.85;78.34
46379;BME280;32084;42.254;22.744;2023-02-13T05:26:00;97041.84;;;-4.64;78.61
46379;BME280;32084;42.254;22.744;2023-02-13T05:28:26;97046.84;;;-4.49;78.29
46379;BME280;32084;42.254;22.744;2023-02-13T05:31:11;97046.47;;;-4.24;76.42
46379;BME280;32084;42.254;22.744;2023-02-13T05:33:37;97049.91;;;-4.24;76.26
46379;BME280;32084;42.254;22.744;2023-02-13T05:36:03;97044.66;;;-4.21;76.20
46379;BME280;32084;42.254;22.744;2023-02-13T05:38:29;97043.72;;;-4.17;76.28
46379;BME280;32084;42.254;22.744;2023-02-13T05:40:57;97047.66;;;-4.45;75.19
46379;BME280;32084;42.254;22.744;2023-02-13T05:43:23;97055.88;;;-4.73;75.85
46379;BME280;32084;42.254;22.744;2023-02-13T05:45:49;97049.69;;;-4.66;77.48
46379;BME280;32084;42.254;22.744;2023-02-13T05:48:16;97055.41;;;-4.39;76.91
46379;BME280;32084;42.254;22.744;2023-02-13T05:50:45;97056.19;;;-4.34;76.04
46379;BME280;32084;42.254;22.744;2023-02-13T05:53:11;97066.41;;;-4.19;76.13
46379;BME280;32084;42.254;22.744;2023-02-13T05:55:37;97057.44;;;-4.04;75.66
46379;BME280;32084;42.254;22.744;2023-02-13T05:58:03;97065.00;;;-3.87;75.44
46379;BME280;32084;42.254;22.744;2023-02-13T06:00:29;97063.81;;;-3.70;74.97
46379;BME280;32084;42.254;22.744;2023-02-13T06:02:55;97054.69;;;-3.48;74.66
46379;BME280;32084;42.254;22.744;2023-02-13T06:05:21;97062.16;;;-2.84;73.43
46379;BME280;32084;42.254;22.744;2023-02-13T06:07:47;97059.66;;;-2.12;68.91
46379;BME280;32084;42.254;22.744;2023-02-13T06:10:13;97060.22;;;-2.01;67.86
46379;BME280;32084;42.254;22.744;2023-02-13T06:12:41;97065.53;;;-2.40;69.90
46379;BME280;32084;42.254;22.744;2023-02-13T06:15:07;97058.44;;;-1.99;70.69
46379;BME280;32084;42.254;22.744;2023-02-13T06:17:33;97063.19;;;0.03;64.75
46379;BME280;32084;42.254;22.744;2023-02-13T06:19:59;97073.38;;;2.70;55.25
46379;BME280;32084;42.254;22.744;2023-02-13T06:22:25;97081.81;;;4.14;50.89
46379;BME280;32084;42.254;22.744;2023-02-13T06:24:51;97091.34;;;5.23;48.04
46379;BME280;32084;42.254;22.744;2023-02-13T06:27:17;97099.09;;;5.77;46.69
46379;BME280;32084;42.254;22.744;2023-02-13T06:29:43;97102.13;;;5.20;47.99
46379;BME280;32084;42.254;22.744;2023-02-13T06:32:09;97108.25;;;5.71;47.08
46379;BME280;32084;42.254;22.744;2023-02-13T06:34:35;97109.59;;;6.58;45.02
46379;BME280;32084;42.254;22.744;2023-02-13T06:37:01;97117.59;;;7.18;43.91
46379;BME280;32084;42.254;22.744;2023-02-13T06:39:28;97124.09;;;7.72;42.51
46379;BME280;32084;42.254;22.744;2023-02-13T06:41:54;97132.09;;;7.57;42.29
46379;BME280;32084;42.254;22.744;2023-02-13T06:44:20;97140.81;;;7.31;41.70
46379;BME280;32084;42.254;22.744;2023-02-13T06:46:46;97140.56;;;7.78;41.67
46379;BME280;32084;42.254;22.744;2023-02-13T06:49:12;97146.91;;;8.75;39.77
46379;BME280;32084;42.254;22.744;2023-02-13T06:51:38;97148.25;;;9.73;38.33
46379;BME280;32084;42.254;22.744;2023-02-13T06:54:04;97154.97;;;9.92;37.35
46379;BME280;32084;42.254;22.744;2023-02-13T06:56:30;97151.13;;;9.70;37.87
46379;BME280;32084;42.254;22.744;2023-02-13T06:58:57;97153.53;;;10.38;37.31
46379;BME280;32084;42.254;22.744;2023-02-13T07:01:23;97168.78;;;11.45;35.07
46379;BME280;32084;42.254;22.744;2023-02-13T07:03:49;97174.16;;;12.37;33.30
46379;BME280;32084;42.254;22.744;2023-02-13T07:06:19;97175.97;;;12.59;32.72
46379;BME280;32084;42.254;22.744;2023-02-13T07:08:45;97171.09;;;12.75;32.55
46379;BME280;32084;42.254;22.744;2023-02-13T07:11:20;97177.16;;;12.88;32.31
46379;BME280;32084;42.254;22.744;2023-02-13T07:13:46;97182.84;;;13.39;31.49
46379;BME280;32084;42.254;22.744;2023-02-13T07:16:14;97185.25;;;13.53;31.32
46379;BME280;32084;42.254;22.744;2023-02-13T07:18:40;97177.00;;;13.01;32.18
46379;BME280;32084;42.254;22.744;2023-02-13T07:21:06;97179.91;;;12.09;33.25
46379;BME280;32084;42.254;22.744;2023-02-13T07:23:32;97182.97;;;12.16;33.29
46379;BME280;32084;42.254;22.744;2023-02-13T07:25:58;97181.00;;;12.41;33.11
46379;BME280;32084;42.254;22.744;2023-02-13T07:28:25;97187.72;;;12.13;33.06
46379;BME280;32084;42.254;22.744;2023-02-13T07:30:51;97166.41;;;10.57;35.68
46379;BME280;32084;42.254;22.744;2023-02-13T07:33:17;97153.41;;;9.24;37.98
46379;BME280;32084;42.254;22.744;2023-02-13T07:35:49;97142.53;;;8.18;40.54
46379;BME280;32084;42.254;22.744;2023-02-13T07:38:16;97136.75;;;7.54;41.37
46379;BME280;32084;42.254;22.744;2023-02-13T07:40:42;97131.63;;;7.06;42.59
46379;BME280;32084;42.254;22.744;2023-02-13T07:43:08;97130.34;;;7.13;42.57
46379;BME280;32084;42.254;22.744;2023-02-13T07:45:34;97125.44;;;7.06;43.44
46379;BME280;32084;42.254;22.744;2023-02-13T07:48:00;97114.78;;;6.45;45.98
46379;BME280;32084;42.254;22.744;2023-02-13T07:50:27;97095.44;;;5.95;47.35
46379;BME280;32084;42.254;22.744;2023-02-13T07:52:56;97094.13;;;5.86;46.71
46379;BME280;32084;42.254;22.744;2023-02-13T07:55:23;97099.41;;;5.71;47.63
46379;BME280;32084;42.254;22.744;2023-02-13T07:57:49;97091.13;;;5.93;46.82
46379;BME280;32084;42.254;22.744;2023-02-13T08:00:15;97092.66;;;5.81;47.58
46379;BME280;32084;42.254;22.744;2023-02-13T08:02:41;97091.47;;;5.86;47.51
46379;BME280;32084;42.254;22.744;2023-02-13T08:05:07;97080.03;;;6.02;47.83
46379;BME280;32084;42.254;22.744;2023-02-13T08:07:33;97081.97;;;5.82;47.66
46379;BME280;32084;42.254;22.744;2023-02-13T08:10:00;97085.81;;;5.93;48.19
46379;BME280;32084;42.254;22.744;2023-02-13T08:12:52;97079.22;;;5.35;49.94
46379;BME280;32084;42.254;22.744;2023-02-13T08:15:19;97065.22;;;5.48;49.13
46379;BME280;32084;42.254;22.744;2023-02-13T08:17:45;97073.31;;;5.79;49.38
46379;BME280;32084;42.254;22.744;2023-02-13T08:20:11;97069.13;;;5.41;50.07
46379;BME280;32084;42.254;22.744;2023-02-13T08:22:37;97068.88;;;5.95;49.77
46379;BME280;32084;42.254;22.744;2023-02-13T08:25:04;97075.63;;;5.85;50.70
46379;BME280;32084;42.254;22.744;2023-02-13T08:27:31;97070.50;;;6.14;50.40
46379;BME280;32084;42.254;22.744;2023-02-13T08:29:57;97071.50;;;6.27;50.30
46379;BME280;32084;42.254;22.744;2023-02-13T08:32:24;97074.13;;;6.43;49.26
46379;BME280;32084;42.254;22.744;2023-02-13T08:34:50;97072.63;;;5.91;50.00
46379;BME280;32084;42.254;22.744;2023-02-13T08:37:16;97073.81;;;6.33;48.29
46379;BME280;32084;42.254;22.744;2023-02-13T08:39:42;97078.25;;;6.49;48.51
46379;BME280;32084;42.254;22.744;2023-02-13T08:42:09;97074.63;;;6.19;49.42
46379;BME280;32084;42.254;22.744;2023-02-13T08:44:35;97066.28;;;6.41;48.97
46379;BME280;32084;42.254;22.744;2023-02-13T08:47:02;97061.72;;;6.43;49.04
46379;BME280;32084;42.254;22.744;2023-02-13T08:49:29;97071.06;;;6.51;48.09
46379;BME280;32084;42.254;22.744;2023-02-13T08:51:55;97076.34;;;6.67;47.87
46379;BME280;32084;42.254;22.744;2023-02-13T08:54:21;97066.69;;;6.80;47.77
46379;BME280;32084;42.254;22.744;2023-02-13T08:56:47;97070.16;;;7.11;47.79
46379;BME280;32084;42.254;22.744;2023-02-13T08:59:13;97075.03;;;7.33;46.83
46379;BME280;32084;42.254;22.744;2023-02-13T09:01:39;97072.47;;;7.31;46.78
46379;BME280;32084;42.254;22.744;2023-02-13T09:04:05;97074.84;;;7.50;46.38
46379;BME280;32084;42.254;22.744;2023-02-13T09:06:31;97073.41;;;7.30;47.54
46379;BME280;32084;42.254;22.744;2023-02-13T09:08:57;97061.25;;;7.40;47.79
46379;BME280;32084;42.254;22.744;2023-02-13T09:11:23;97069.53;;;7.50;47.79
46379;BME280;32084;42.254;22.744;2023-02-13T09:13:52;97063.44;;;7.48;47.35
46379;BME280;32084;42.254;22.744;2023-02-13T09:16:19;97060.03;;;7.46;49.02
46379;BME280;32084;42.254;22.744;2023-02-13T09:18:48;97057.34;;;7.32;48.29
46379;BME280;32084;42.254;22.744;2023-02-13T09:21:17;97059.47;;;7.55;48.64
46379;BME280;32084;42.254;22.744;2023-02-13T09:23:43;97061.63;;;7.63;48.10
46379;BME280;32084;42.254;22.744;2023-02-13T09:26:11;97061.91;;;7.58;47.87
46379;BME280;32084;42.254;22.744;2023-02-13T09:28:37;97060.63;;;7.93;47.35
46379;BME280;32084;42.254;22.744;2023-02-13T09:31:04;97061.97;;;8.00;47.97
46379;BME280;32084;42.254;22.744;2023-02-13T09:33:31;97055.94;;;8.11;47.17
46379;BME280;32084;42.254;22.744;2023-02-13T09:35:57;97058.19;;;8.31;46.21
46379;BME280;32084;42.254;22.744;2023-02-13T09:38:23;97056.59;;;8.56;46.55
46379;BME280;32084;42.254;22.744;2023-02-13T09:40:50;97061.69;;;8.59;46.52
46379;BME280;32084;42.254;22.744;2023-02-13T09:46:10;97053.31;;;7.96;46.79
46379;BME280;32084;42.254;22.744;2023-02-13T09:48:38;97045.47;;;8.08;46.86
46379;BME280;32084;42.254;22.744;2023-02-13T09:51:05;97042.78;;;8.22;46.57
46379;BME280;32084;42.254;22.744;2023-02-13T09:53:31;97035.78;;;8.34;46.19
46379;BME280;32084;42.254;22.744;2023-02-13T09:56:06;97035.78;;;8.34;45.67
46379;BME280;32084;42.254;22.744;2023-02-13T09:58:48;97034.78;;;9.02;45.67
46379;BME280;32084;42.254;22.744;2023-02-13T10:06:24;97026.66;;;8.91;45.47
46379;BME280;32084;42.254;22.744;2023-02-13T10:08:57;97027.22;;;9.22;43.84
46379;BME280;32084;42.254;22.744;2023-02-13T10:16:42;97013.13;;;9.45;43.63
46379;BME280;32084;42.254;22.744;2023-02-13T10:21:55;97011.47;;;10.05;42.64
46379;BME280;32084;42.254;22.744;2023-02-13T10:27:27;97008.72;;;10.31;40.81
46379;BME280;32084;42.254;22.744;2023-02-13T10:35:03;96983.31;;;9.88;41.94
46379;BME280;32084;42.254;22.744;2023-02-13T10:37:40;96979.50;;;9.80;42.22
46379;BME280;32084;42.254;22.744;2023-02-13T10:40:10;96978.38;;;9.95;42.14
46379;BME280;32084;42.254;22.744;2023-02-13T10:45:47;96964.91;;;9.60;42.70
46379;BME280;32084;42.254;22.744;2023-02-13T10:50:55;96956.53;;;9.77;42.71
46379;BME280;32084;42.254;22.744;2023-02-13T10:58:18;96938.94;;;9.62;42.05
46379;BME280;32084;42.254;22.744;2023-02-13T11:01:30;96940.31;;;9.67;42.37
46379;BME280;32084;42.254;22.744;2023-02-13T11:03:34;96938.66;;;9.90;42.36
46379;BME280;32084;42.254;22.744;2023-02-13T11:06:04;96938.22;;;9.84;41.72
46379;BME280;32084;42.254;22.744;2023-02-13T11:10:56;96933.59;;;9.62;41.16
46379;BME280;32084;42.254;22.744;2023-02-13T11:13:23;96925.47;;;9.63;42.39
46379;BME280;32084;42.254;22.744;2023-02-13T11:16:06;96921.00;;;9.64;42.63
46379;BME280;32084;42.254;22.744;2023-02-13T11:18:34;96904.66;;;9.92;41.93
46379;BME280;32084;42.254;22.744;2023-02-13T11:21:22;96911.47;;;9.96;40.61
46379;BME280;32084;42.254;22.744;2023-02-13T11:23:53;96906.69;;;10.24;40.46
46379;BME280;32084;42.254;22.744;2023-02-13T11:26:23;96904.09;;;10.35;39.56
46379;BME280;32084;42.254;22.744;2023-02-13T11:28:53;96900.56;;;10.11;39.03
46379;BME280;32084;42.254;22.744;2023-02-13T11:33:52;96909.34;;;10.37;36.31
46379;BME280;32084;42.254;22.744;2023-02-13T11:36:23;96903.38;;;9.85;36.49
46379;BME280;32084;42.254;22.744;2023-02-13T11:39:03;96894.09;;;10.26;38.06
46379;BME280;32084;42.254;22.744;2023-02-13T11:41:30;96895.91;;;10.61;37.12
46379;BME280;32084;42.254;22.744;2023-02-13T11:43:57;96894.91;;;10.62;36.07
46379;BME280;32084;42.254;22.744;2023-02-13T11:46:29;96882.78;;;10.69;36.78
46379;BME280;32084;42.254;22.744;2023-02-13T11:48:57;96875.44;;;10.49;37.14
46379;BME280;32084;42.254;22.744;2023-02-13T11:54:23;96875.97;;;10.65;36.25
46379;BME280;32084;42.254;22.744;2023-02-13T11:56:51;96873.78;;;10.59;35.54
46379;BME280;32084;42.254;22.744;2023-02-13T11:59:20;96863.19;;;10.58;36.95
46379;BME280;32084;42.254;22.744;2023-02-13T12:01:47;96863.03;;;10.37;37.44
46379;BME280;32084;42.254;22.744;2023-02-13T12:04:26;96857.38;;;10.17;36.98
46379;BME280;32084;42.254;22.744;2023-02-13T12:07:02;96843.22;;;10.39;36.27
46379;BME280;32084;42.254;22.744;2023-02-13T12:09:29;96833.97;;;10.32;36.43
46379;BME280;32084;42.254;22.744;2023-02-13T12:15:41;96831.25;;;10.21;37.58
46379;BME280;32084;42.254;22.744;2023-02-13T12:18:09;96823.16;;;9.98;37.89
46379;BME280;32084;42.254;22.744;2023-02-13T12:28:27;96805.31;;;9.39;38.48
46379;BME280;32084;42.254;22.744;2023-02-13T12:36:38;96791.25;;;9.00;39.39
46379;BME280;32084;42.254;22.744;2023-02-13T12:39:17;96786.69;;;9.26;39.68
46379;BME280;32084;42.254;22.744;2023-02-13T12:41:57;96778.31;;;9.55;39.85
46379;BME280;32084;42.254;22.744;2023-02-13T12:57:22;96770.97;;;9.70;38.09
46379;BME280;32084;42.254;22.744;2023-02-13T13:02:42;96763.69;;;9.72;37.11
46379;BME280;32084;42.254;22.744;2023-02-13T13:10:39;96757.16;;;9.52;37.00
46379;BME280;32084;42.254;22.744;2023-02-13T13:24:22;96739.13;;;9.07;36.42
46379;BME280;32084;42.254;22.744;2023-02-13T13:26:49;96744.28;;;9.22;36.49
46379;BME280;32084;42.254;22.744;2023-02-13T13:29:20;96746.97;;;9.22;36.32
46379;BME280;32084;42.254;22.744;2023-02-13T13:31:49;96745.16;;;8.98;36.50
46379;BME280;32084;42.254;22.744;2023-02-13T13:34:20;96729.88;;;9.00;37.62
46379;BME280;32084;42.254;22.744;2023-02-13T13:39:15;96732.16;;;9.17;37.67
46379;BME280;32084;42.254;22.744;2023-02-13T13:44:18;96731.50;;;9.38;37.12
46379;BME280;32084;42.254;22.744;2023-02-13T13:54:40;96719.94;;;9.02;37.89
46379;BME280;32084;42.254;22.744;2023-02-13T13:57:06;96726.41;;;8.87;38.23
46379;BME280;32084;42.254;22.744;2023-02-13T14:07:35;96729.00;;;8.75;37.09
46379;BME280;32084;42.254;22.744;2023-02-13T14:10:01;96725.03;;;8.81;37.09
46379;BME280;32084;42.254;22.744;2023-02-13T14:14:54;96715.00;;;8.85;36.93
46379;BME280;32084;42.254;22.744;2023-02-13T14:20:18;96713.25;;;8.96;37.88
46379;BME280;32084;42.254;22.744;2023-02-13T14:22:46;96716.94;;;8.83;37.77
46379;BME280;32084;42.254;22.744;2023-02-13T14:25:21;96713.22;;;8.72;38.33
46379;BME280;32084;42.254;22.744;2023-02-13T14:27:58;96708.69;;;8.49;39.89
46379;BME280;32084;42.254;22.744;2023-02-13T14:30:27;96699.97;;;8.47;40.22
46379;BME280;32084;42.254;22.744;2023-02-13T14:32:54;96697.19;;;8.35;40.33
46379;BME280;32084;42.254;22.744;2023-02-13T14:35:25;96694.09;;;8.29;40.65
46379;BME280;32084;42.254;22.744;2023-02-13T14:37:58;96694.63;;;8.34;40.33
46379;BME280;32084;42.254;22.744;2023-02-13T14:40:30;96694.50;;;8.35;40.90
46379;BME280;32084;42.254;22.744;2023-02-13T14:42:57;96695.25;;;8.37;40.49
46379;BME280;32084;42.254;22.744;2023-02-13T14:45:35;96691.31;;;8.30;40.83
46379;BME280;32084;42.254;22.744;2023-02-13T14:48:06;96690.56;;;8.28;40.86
46379;BME280;32084;42.254;22.744;2023-02-13T14:50:38;96686.63;;;8.21;41.40
46379;BME280;32084;42.254;22.744;2023-02-13T14:53:16;96689.53;;;8.18;40.98
46379;BME280;32084;42.254;22.744;2023-02-13T14:55:44;96686.88;;;8.18;41.19
46379;BME280;32084;42.254;22.744;2023-02-13T14:58:14;96689.00;;;8.13;41.12
46379;BME280;32084;42.254;22.744;2023-02-13T15:00:58;96688.47;;;8.08;41.00
46379;BME280;32084;42.254;22.744;2023-02-13T15:03:30;96687.63;;;8.07;40.84
46379;BME280;32084;42.254;22.744;2023-02-13T15:05:59;96684.63;;;8.12;40.64
46379;BME280;32084;42.254;22.744;2023-02-13T15:08:34;96690.50;;;8.04;40.70
46379;BME280;32084;42.254;22.744;2023-02-13T15:11:01;96682.50;;;8.04;41.03
46379;BME280;32084;42.254;22.744;2023-02-13T15:13:32;96682.84;;;8.12;40.86
46379;BME280;32084;42.254;22.744;2023-02-13T15:15:59;96684.00;;;8.08;40.81
46379;BME280;32084;42.254;22.744;2023-02-13T15:18:28;96686.34;;;7.87;41.89
46379;BME280;32084;42.254;22.744;2023-02-13T15:20:55;96676.75;;;7.46;42.77
46379;BME280;32084;42.254;22.744;2023-02-13T15:23:26;96680.53;;;7.16;43.57
46379;BME280;32084;42.254;22.744;2023-02-13T15:26:00;96676.19;;;6.88;44.04
46379;BME280;32084;42.254;22.744;2023-02-13T15:28:27;96672.44;;;6.51;44.81
46379;BME280;32084;42.254;22.744;2023-02-13T15:33:24;96672.75;;;6.03;46.07
46379;BME280;32084;42.254;22.744;2023-02-13T15:35:58;96674.44;;;5.90;46.47
46379;BME280;32084;42.254;22.744;2023-02-13T15:38:32;96672.25;;;5.82;46.77
46379;BME280;32084;42.254;22.744;2023-02-13T15:43:30;96672.41;;;5.50;47.19
46379;BME280;32084;42.254;22.744;2023-02-13T15:45:58;96670.22;;;5.28;47.79
46379;BME280;32084;42.254;22.744;2023-02-13T15:48:25;96674.56;;;5.15;48.38
46379;BME280;32084;42.254;22.744;2023-02-13T15:50:53;96677.06;;;5.02;48.65
46379;BME280;32084;42.254;22.744;2023-02-13T15:53:19;96674.09;;;4.92;48.94
46379;BME280;32084;42.254;22.744;2023-02-13T15:58:41;96669.00;;;4.73;49.41
46379;BME280;32084;42.254;22.744;2023-02-13T16:01:08;96679.97;;;4.67;49.77
46379;BME280;32084;42.254;22.744;2023-02-13T16:03:35;96683.22;;;4.56;50.25